Burton City, Ohio
Current Conditions -  °F | °C
As of 8:56 AM on Friday 19 Dec 2014 (Local Time) from KBJJ Reporting Station
Haze Haze  
Wind Chill: -7°   Ceiling: 900
Heat Index: -2°   Visibility: 4mi
Dew Point: -3°   Wind: 8mph
Humidity: 92%   Direction: 300°WNW
Pressure: 30.23"   Gusts: NA
Location:  40.8369°N, 81.7632°W
Report Text: KBJJ 191356Z AUTO 30007KT 4SM BR OVC009 M02/M03 A3023 RMK AO2 CIG 006V012 SLP251 I1000 T10221033 TSNO
Loading
Personal Weather Stations






























Interactive Weather Map New forecast layout! Learn more

10-Day Weather Forecast

Advertisements
Track Severe Weather on mobile